createdAt,value
2018-02-20T00:00:28.534Z,90.16
2018-02-20T00:01:28.484Z,90.16
2018-02-20T00:02:28.441Z,90.25
2018-02-20T00:03:28.380Z,90.16
2018-02-20T00:04:28.335Z,90.25
2018-02-20T00:05:28.284Z,90.25
2018-02-20T00:06:28.248Z,90.35
2018-02-20T00:07:28.256Z,90.06
2018-02-20T00:08:28.130Z,90.16
2018-02-20T00:09:28.081Z,90.25
2018-02-20T00:10:28.033Z,90.25
2018-02-20T00:11:27.987Z,89.97
2018-02-20T00:13:27.881Z,90.82
2018-02-20T00:14:27.835Z,90.82
2018-02-20T00:15:27.782Z,90.44
2018-02-20T00:16:27.731Z,90.63
2018-02-20T00:17:27.683Z,90.25
2018-02-20T00:18:27.643Z,90.25
2018-02-20T00:19:27.578Z,90.25
2018-02-20T00:20:27.531Z,90.44
2018-02-20T00:21:27.545Z,90.91
2018-02-20T00:22:27.428Z,90.91
2018-02-20T00:23:27.451Z,90.82
2018-02-20T00:24:27.330Z,90.44
2018-02-20T00:25:27.283Z,90.73
2018-02-20T00:26:27.230Z,90.63
2018-02-20T00:27:27.178Z,90.82
2018-02-20T00:28:27.128Z,90.44
2018-02-20T00:29:27.085Z,91.01
2018-02-20T00:30:27.028Z,90.35
2018-02-20T00:31:26.976Z,90.44
2018-02-20T00:32:26.931Z,91.10
2018-02-20T00:33:26.876Z,91.10
2018-02-20T00:34:26.824Z,90.82
2018-02-20T00:35:26.782Z,91.39
2018-02-20T00:36:26.726Z,91.20
2018-02-20T00:37:26.676Z,91.39
2018-02-20T00:38:26.624Z,91.01
2018-02-20T00:39:26.578Z,91.48
2018-02-20T00:40:26.521Z,91.39
2018-02-20T00:41:26.476Z,91.58
2018-02-20T00:42:26.425Z,91.67
2018-02-20T00:43:26.376Z,91.77
2018-02-20T00:44:26.322Z,91.77
2018-02-20T00:45:26.273Z,91.86
2018-02-20T00:46:26.223Z,91.96
2018-02-20T00:47:26.173Z,91.86
2018-02-20T00:48:26.123Z,92.24
2018-02-20T00:49:26.075Z,91.86
2018-02-20T00:50:26.021Z,91.67
2018-02-20T00:51:25.972Z,92.05
2018-02-20T00:52:25.921Z,92.05
2018-02-20T00:53:25.868Z,92.14
2018-02-20T00:54:25.819Z,91.77
2018-02-20T00:55:25.769Z,92.05
2018-02-20T00:56:25.720Z,91.86
2018-02-20T00:57:25.669Z,91.96
2018-02-20T00:58:25.617Z,91.67
2018-02-20T00:59:25.568Z,91.67
2018-02-20T01:00:25.521Z,91.77
2018-02-20T01:01:25.467Z,91.96
2018-02-20T01:02:25.417Z,92.05
2018-02-20T01:03:25.366Z,91.48
2018-02-20T01:04:25.316Z,92.14
2018-02-20T01:05:25.267Z,92.05
2018-02-20T01:06:25.217Z,92.33
2018-02-20T01:07:25.164Z,91.86
2018-02-20T01:08:25.114Z,91.86
2018-02-20T01:09:25.068Z,92.05
2018-02-20T01:10:25.012Z,92.33
2018-02-20T01:11:24.970Z,92.52
2018-02-20T01:12:24.911Z,92.80
2018-02-20T01:13:24.861Z,92.33
2018-02-20T01:14:24.811Z,92.33
2018-02-20T01:15:24.765Z,92.33
2018-02-20T01:16:24.712Z,92.38
2018-02-20T01:17:24.661Z,92.43
2018-02-20T01:18:24.608Z,92.66
2018-02-20T01:19:24.559Z,92.80
2018-02-20T01:20:24.508Z,92.52
2018-02-20T01:21:24.457Z,92.80
2018-02-20T01:22:24.407Z,92.71
2018-02-20T01:23:24.358Z,93.04
2018-02-20T01:24:24.306Z,92.85
2018-02-20T01:25:24.254Z,92.52
2018-02-20T01:26:24.205Z,92.38
2018-02-20T01:27:24.153Z,92.57
2018-02-20T01:28:24.111Z,92.85
2018-02-20T01:29:24.053Z,92.66
2018-02-20T01:30:24.004Z,93.13
2018-02-20T01:31:23.952Z,93.23
2018-02-20T01:32:23.899Z,92.85
2018-02-20T01:33:23.851Z,92.76
2018-02-20T01:34:23.800Z,92.76
2018-02-20T01:35:23.750Z,93.23
2018-02-20T01:36:23.700Z,93.51
2018-02-20T01:37:23.648Z,93.32
2018-02-20T01:38:23.593Z,93.42
2018-02-20T01:39:23.545Z,93.70
2018-02-20T01:40:23.493Z,93.99
2018-02-20T01:41:23.446Z,93.32
2018-02-20T01:42:23.398Z,93.99
2018-02-20T01:43:23.346Z,93.89
2018-02-20T01:44:23.296Z,93.70
2018-02-20T01:45:23.244Z,93.61
2018-02-20T01:46:23.193Z,93.89
2018-02-20T01:47:23.144Z,94.08
2018-02-20T01:48:23.095Z,93.89
2018-02-20T01:49:23.041Z,93.80
2018-02-20T01:50:22.988Z,93.80
2018-02-20T01:51:22.936Z,93.61
2018-02-20T01:52:22.890Z,93.61
2018-02-20T01:53:22.838Z,93.89
2018-02-20T01:54:22.789Z,94.08
2018-02-20T01:55:22.737Z,93.70
2018-02-20T01:56:22.689Z,93.61
2018-02-20T01:57:22.636Z,93.51
2018-02-20T01:58:22.582Z,94.08
2018-02-20T01:59:22.533Z,93.89
2018-02-20T02:00:22.485Z,93.80
2018-02-20T02:01:22.454Z,93.89
2018-02-20T02:02:22.391Z,93.89
2018-02-20T02:03:22.334Z,93.89
2018-02-20T02:04:22.283Z,93.89
2018-02-20T02:05:22.229Z,93.80
2018-02-20T02:06:22.182Z,93.89
2018-02-20T02:07:22.127Z,93.99
2018-02-20T02:08:22.083Z,93.89
2018-02-20T02:09:22.025Z,94.18
2018-02-20T02:10:21.976Z,93.99
2018-02-20T02:11:21.927Z,93.99
2018-02-20T02:12:21.876Z,93.99
2018-02-20T02:13:21.824Z,93.80
2018-02-20T02:14:21.773Z,93.89
2018-02-20T02:15:21.722Z,93.89
2018-02-20T02:16:21.672Z,93.80
2018-02-20T02:17:21.621Z,94.56
2018-02-20T02:18:21.569Z,94.37
2018-02-20T02:19:21.519Z,94.46
2018-02-20T02:20:21.470Z,94.18
2018-02-20T02:21:21.417Z,94.27
2018-02-20T02:22:21.368Z,94.37
2018-02-20T02:23:21.316Z,94.08
2018-02-20T02:24:21.266Z,94.18
2018-02-20T02:25:21.216Z,94.56
2018-02-20T02:26:21.162Z,94.46
2018-02-20T02:27:21.114Z,94.27
2018-02-20T02:28:21.062Z,94.08
2018-02-20T02:29:21.014Z,94.27
2018-02-20T02:30:20.962Z,93.99
2018-02-20T02:31:20.911Z,94.46
2018-02-20T02:32:20.866Z,94.08
2018-02-20T02:33:20.810Z,94.37
2018-02-20T02:34:20.803Z,94.46
2018-02-20T02:35:20.704Z,94.27
2018-02-20T02:36:20.667Z,94.65
2018-02-20T02:37:20.607Z,94.74
2018-02-20T02:38:20.550Z,94.56
2018-02-20T02:39:20.510Z,94.56
2018-02-20T02:40:20.456Z,94.93
2018-02-20T02:41:20.406Z,94.84
2018-02-20T02:42:20.348Z,95.03
2018-02-20T02:43:20.303Z,95.03
2018-02-20T02:44:20.251Z,94.84
2018-02-20T02:45:20.201Z,95.03
2018-02-20T02:46:20.145Z,95.21
2018-02-20T02:47:20.101Z,95.21
2018-02-20T02:48:20.047Z,95.03
2018-02-20T02:49:19.998Z,95.03
2018-02-20T02:50:19.940Z,94.93
2018-02-20T02:51:19.892Z,94.84
2018-02-20T02:52:19.843Z,94.93
2018-02-20T02:53:19.789Z,94.65
2018-02-20T02:54:19.751Z,94.93
2018-02-20T02:55:19.695Z,94.93
2018-02-20T02:56:19.636Z,94.93
2018-02-20T02:57:19.588Z,94.93
2018-02-20T02:58:19.539Z,95.03
2018-02-20T02:59:20.145Z,95.12
2018-02-20T03:00:19.439Z,95.21
2018-02-20T03:01:19.391Z,95.03
2018-02-20T03:02:19.336Z,95.03
2018-02-20T03:03:19.285Z,95.03
2018-02-20T03:04:19.230Z,95.03
2018-02-20T03:05:19.183Z,95.12
2018-02-20T03:06:19.130Z,95.03
2018-02-20T03:07:19.079Z,94.93
2018-02-20T03:08:19.031Z,95.03
2018-02-20T03:09:18.981Z,94.93
2018-02-20T03:10:18.923Z,95.03
2018-02-20T03:11:18.882Z,95.21
2018-02-20T03:12:18.830Z,95.21
2018-02-20T03:13:18.773Z,95.03
2018-02-20T03:14:18.727Z,95.12
2018-02-20T03:15:18.673Z,94.93
2018-02-20T03:16:18.624Z,95.03
2018-02-20T03:17:18.575Z,95.12
2018-02-20T03:18:18.522Z,94.93
2018-02-20T03:19:18.467Z,94.84
2018-02-20T03:20:18.425Z,95.03
2018-02-20T03:21:18.369Z,95.12
2018-02-20T03:22:18.316Z,95.21
2018-02-20T03:23:18.268Z,95.12
2018-02-20T03:24:18.216Z,94.84
2018-02-20T03:25:18.163Z,95.21
2018-02-20T03:26:18.115Z,95.21
2018-02-20T03:27:18.065Z,94.93
2018-02-20T03:28:18.014Z,95.21
2018-02-20T03:29:17.965Z,95.03
2018-02-20T03:30:17.911Z,95.03
2018-02-20T03:31:17.859Z,94.84
2018-02-20T03:32:17.809Z,94.93
2018-02-20T03:33:17.759Z,95.50
2018-02-20T03:34:17.708Z,95.40
2018-02-20T03:35:17.656Z,94.84
2018-02-20T03:36:17.603Z,94.84
2018-02-20T03:37:17.552Z,94.93
2018-02-20T03:38:17.499Z,94.93
2018-02-20T03:39:17.454Z,94.93
2018-02-20T03:40:17.401Z,94.93
2018-02-20T03:41:17.351Z,95.03
2018-02-20T03:42:17.299Z,94.93
2018-02-20T03:43:17.248Z,94.93
2018-02-20T03:44:17.197Z,95.12
2018-02-20T03:45:17.145Z,95.21
2018-02-20T03:46:17.102Z,95.40
2018-02-20T03:47:17.049Z,95.31
2018-02-20T03:48:16.992Z,95.31
2018-02-20T03:49:16.952Z,95.12
2018-02-20T03:50:16.888Z,95.21
2018-02-20T03:51:16.840Z,95.21
2018-02-20T03:52:16.786Z,95.40
2018-02-20T03:53:16.738Z,95.40
2018-02-20T03:54:16.688Z,95.12
2018-02-20T03:55:16.636Z,95.21
2018-02-20T03:56:16.587Z,95.12
2018-02-20T03:57:16.535Z,95.03
2018-02-20T03:58:16.481Z,94.84
2018-02-20T03:59:16.432Z,94.74
2018-02-20T04:00:16.379Z,94.56
2018-02-20T04:01:16.331Z,94.18
2018-02-20T04:02:16.277Z,94.27
2018-02-20T04:03:16.227Z,94.18
2018-02-20T04:04:16.179Z,94.18
2018-02-20T04:05:16.126Z,94.27
2018-02-20T04:06:16.075Z,94.27
2018-02-20T04:07:16.022Z,94.08
2018-02-20T04:08:15.971Z,94.08
2018-02-20T04:09:15.923Z,94.08
2018-02-20T04:10:15.871Z,93.99
2018-02-20T04:11:15.820Z,94.37
2018-02-20T04:12:15.766Z,94.46
2018-02-20T04:13:15.717Z,94.74
2018-02-20T04:14:15.665Z,94.46
2018-02-20T04:15:15.620Z,94.93
2018-02-20T04:16:15.565Z,95.21
2018-02-20T04:17:15.513Z,94.46
2018-02-20T04:18:15.468Z,94.65
2018-02-20T04:19:15.412Z,94.46
2018-02-20T04:20:15.359Z,94.51
2018-02-20T04:21:15.312Z,94.51
2018-02-20T04:22:15.254Z,94.51
2018-02-20T04:23:15.205Z,94.60
2018-02-20T04:24:15.157Z,94.51
2018-02-20T04:25:15.102Z,94.51
2018-02-20T04:26:15.055Z,94.51
2018-02-20T04:27:14.998Z,94.89
2018-02-20T04:28:14.952Z,95.17
2018-02-20T04:29:14.897Z,94.89
2018-02-20T04:30:14.849Z,95.07
2018-02-20T04:31:14.797Z,95.07
2018-02-20T04:32:14.745Z,94.89
2018-02-20T04:33:14.696Z,94.70
2018-02-20T04:34:14.639Z,94.98
2018-02-20T04:35:14.591Z,95.07
2018-02-20T04:36:14.538Z,95.54
2018-02-20T04:37:14.490Z,95.17
2018-02-20T04:38:14.437Z,96.01
2018-02-20T04:39:14.384Z,95.73
2018-02-20T04:40:14.334Z,95.83
2018-02-20T04:41:14.280Z,95.73
2018-02-20T04:42:14.234Z,95.92
2018-02-20T04:43:14.178Z,96.01
2018-02-20T04:44:14.127Z,95.54
2018-02-20T04:45:14.076Z,96.01
2018-02-20T04:46:14.030Z,95.83
2018-02-20T04:47:13.973Z,95.26
2018-02-20T04:48:13.923Z,95.07
2018-02-20T04:49:13.873Z,95.36
2018-02-20T04:50:13.820Z,95.45
2018-02-20T04:51:13.771Z,95.36
2018-02-20T04:52:13.717Z,94.89
2018-02-20T04:53:13.670Z,94.89
2018-02-20T04:54:13.667Z,95.54
2018-02-20T04:55:13.568Z,95.36
2018-02-20T04:56:13.517Z,94.98
2018-02-20T04:57:13.461Z,95.26
2018-02-20T04:58:13.407Z,95.54
2018-02-20T04:59:13.359Z,95.36
2018-02-20T05:00:13.310Z,95.17
2018-02-20T05:01:13.254Z,95.26
2018-02-20T05:02:13.202Z,95.07
2018-02-20T05:03:13.152Z,96.01
2018-02-20T05:04:13.098Z,95.92
2018-02-20T05:05:13.050Z,95.54
2018-02-20T05:06:12.999Z,95.73
2018-02-20T05:07:12.944Z,95.92
2018-02-20T05:08:12.897Z,96.11
2018-02-20T05:09:12.845Z,96.11
2018-02-20T05:10:12.790Z,95.92
2018-02-20T05:11:12.751Z,95.83
2018-02-20T05:12:12.706Z,96.01
2018-02-20T05:13:12.643Z,95.83
2018-02-20T05:14:12.588Z,95.64
2018-02-20T05:15:12.535Z,95.45
2018-02-20T05:16:12.484Z,96.01
2018-02-20T05:17:12.440Z,95.92
2018-02-20T05:18:12.381Z,95.64
2018-02-20T05:19:12.331Z,95.73
2018-02-20T05:20:12.279Z,95.92
2018-02-20T05:21:12.227Z,95.73
2018-02-20T05:22:12.188Z,95.73
2018-02-20T05:23:12.124Z,95.83
2018-02-20T05:24:12.072Z,96.01
2018-02-20T05:25:12.026Z,95.54
2018-02-20T05:26:11.972Z,95.54
2018-02-20T05:27:11.917Z,95.73
2018-02-20T05:28:11.868Z,95.64
2018-02-20T05:29:11.815Z,95.64
2018-02-20T05:30:11.762Z,95.54
2018-02-20T05:31:11.712Z,95.83
2018-02-20T05:32:11.661Z,95.83
2018-02-20T05:33:11.611Z,95.92
2018-02-20T05:34:11.555Z,95.54
2018-02-20T05:35:11.511Z,95.73
2018-02-20T05:36:11.457Z,95.73
2018-02-20T05:37:11.409Z,95.73
2018-02-20T05:38:11.353Z,95.64
2018-02-20T05:39:11.299Z,95.54
2018-02-20T05:40:11.249Z,95.64
2018-02-20T05:41:11.202Z,95.54
2018-02-20T05:42:11.149Z,95.64
2018-02-20T05:43:11.106Z,95.54
2018-02-20T05:44:11.043Z,95.73
2018-02-20T05:45:10.996Z,96.01
2018-02-20T05:46:10.939Z,96.11
2018-02-20T05:47:10.891Z,95.83
2018-02-20T05:48:10.836Z,95.83
2018-02-20T05:49:10.789Z,95.54
2018-02-20T05:50:10.734Z,96.01
2018-02-20T05:51:10.683Z,96.49
2018-02-20T05:52:10.628Z,96.20
2018-02-20T05:53:10.583Z,96.39
2018-02-20T05:54:10.527Z,96.30
2018-02-20T05:55:10.474Z,96.30
2018-02-20T05:56:10.423Z,96.11
2018-02-20T05:57:10.373Z,95.92
2018-02-20T05:58:10.325Z,96.11
2018-02-20T05:59:10.269Z,96.39
2018-02-20T06:00:10.217Z,96.39
2018-02-20T06:01:10.165Z,95.92
2018-02-20T06:02:10.114Z,96.11
2018-02-20T06:03:10.060Z,95.92
2018-02-20T06:04:10.009Z,96.49
2018-02-20T06:05:09.961Z,96.49
2018-02-20T06:06:09.906Z,96.39
2018-02-20T06:07:09.860Z,96.39
2018-02-20T06:08:09.805Z,96.49
2018-02-20T06:09:09.755Z,96.39
2018-02-20T06:10:09.704Z,95.92
2018-02-20T06:11:09.688Z,96.49
2018-02-20T06:12:09.599Z,96.01
2018-02-20T06:13:09.552Z,96.01
2018-02-20T06:14:09.496Z,96.39
2018-02-20T06:15:09.446Z,96.49
2018-02-20T06:16:09.392Z,96.01
2018-02-20T06:17:09.340Z,96.68
2018-02-20T06:18:09.291Z,96.20
2018-02-20T06:19:09.238Z,96.68
2018-02-20T06:20:09.186Z,96.01
2018-02-20T06:21:09.182Z,96.30
2018-02-20T06:22:09.087Z,96.20
2018-02-20T06:23:09.047Z,96.20
2018-02-20T06:24:08.985Z,96.30
2018-02-20T06:25:08.926Z,96.20
2018-02-20T06:26:08.875Z,96.11
2018-02-20T06:27:08.832Z,96.58
2018-02-20T06:28:08.773Z,96.49
2018-02-20T06:29:08.722Z,96.20
2018-02-20T06:30:08.670Z,96.77
2018-02-20T06:31:08.659Z,96.58
2018-02-20T06:32:08.565Z,96.39
2018-02-20T06:33:08.518Z,96.30
2018-02-20T06:34:08.466Z,96.96
2018-02-20T06:35:08.410Z,96.96
2018-02-20T06:36:08.358Z,96.96
2018-02-20T06:37:08.307Z,97.34
2018-02-20T06:38:08.258Z,98.10
2018-02-20T06:39:08.224Z,97.53
2018-02-20T06:40:08.154Z,97.81
2018-02-20T06:41:08.103Z,98.19
2018-02-20T06:42:08.050Z,97.62
2018-02-20T06:43:07.997Z,98.00
2018-02-20T06:44:07.947Z,98.00
2018-02-20T06:45:07.904Z,98.38
2018-02-20T06:46:07.841Z,98.85
2018-02-20T06:47:07.794Z,99.13
2018-02-20T06:48:07.742Z,98.85
2018-02-20T06:49:07.690Z,98.75
2018-02-20T06:50:07.636Z,98.38
2018-02-20T06:51:07.586Z,98.66
2018-02-20T06:52:07.538Z,98.38
2018-02-20T06:53:07.482Z,98.47
2018-02-20T06:54:07.430Z,98.47
2018-02-20T06:55:07.378Z,98.47
2018-02-20T06:56:07.332Z,98.38
2018-02-20T06:57:07.283Z,98.38
2018-02-20T06:58:07.225Z,98.47
2018-02-20T06:59:07.174Z,98.57
2018-02-20T07:00:07.119Z,99.04
2018-02-20T07:01:07.072Z,98.66
2018-02-20T07:02:07.019Z,99.22
2018-02-20T07:03:06.968Z,98.66
2018-02-20T07:04:06.915Z,98.75
2018-02-20T07:05:06.875Z,98.57
2018-02-20T07:06:06.815Z,98.66
2018-02-20T07:07:06.764Z,98.66
2018-02-20T07:08:06.708Z,98.47
2018-02-20T07:09:06.657Z,98.47
2018-02-20T07:10:06.608Z,98.85
2018-02-20T07:11:06.553Z,98.66
2018-02-20T07:12:06.552Z,98.75
2018-02-20T07:13:06.452Z,98.75
2018-02-20T07:14:06.402Z,98.75
2018-02-20T07:15:06.353Z,98.66
2018-02-20T07:16:06.298Z,98.66
2018-02-20T07:17:06.249Z,98.66
2018-02-20T07:18:06.195Z,98.75
2018-02-20T07:19:06.162Z,98.85
2018-02-20T07:20:06.098Z,98.85
2018-02-20T07:21:06.040Z,98.66
2018-02-20T07:22:05.992Z,98.75
2018-02-20T07:23:05.942Z,98.38
2018-02-20T07:24:05.885Z,98.66
2018-02-20T07:25:05.835Z,98.66
2018-02-20T07:26:05.788Z,98.94
2018-02-20T07:27:05.737Z,98.85
2018-02-20T07:28:05.680Z,98.94
2018-02-20T07:29:05.631Z,98.85
2018-02-20T07:30:05.583Z,98.99
2018-02-20T07:31:05.532Z,98.99
2018-02-20T07:32:05.479Z,98.61
2018-02-20T07:33:05.427Z,98.43
2018-02-20T07:34:05.372Z,98.80
2018-02-20T07:35:05.323Z,98.61
2018-02-20T07:36:05.275Z,98.80
2018-02-20T07:37:05.220Z,98.99
2018-02-20T07:38:05.171Z,98.80
2018-02-20T07:39:05.117Z,98.90
2018-02-20T07:40:05.071Z,98.71
2018-02-20T07:41:05.016Z,98.24
2018-02-20T07:42:04.963Z,98.43
2018-02-20T07:43:04.911Z,98.33
2018-02-20T07:44:04.870Z,97.86
2018-02-20T07:45:04.811Z,97.86
2018-02-20T07:46:04.757Z,97.96
2018-02-20T07:47:04.708Z,97.86
2018-02-20T07:48:04.657Z,97.67
2018-02-20T07:49:04.606Z,97.58
2018-02-20T07:50:04.560Z,97.48
2018-02-20T07:51:04.508Z,97.58
2018-02-20T07:52:04.457Z,97.01
2018-02-20T07:53:04.404Z,96.44
2018-02-20T07:54:04.355Z,96.44
2018-02-20T07:55:04.302Z,96.59
2018-02-20T07:56:04.250Z,96.78
2018-02-20T07:57:04.203Z,96.40
2018-02-20T07:58:04.148Z,96.59
2018-02-20T07:59:04.099Z,95.83
2018-02-20T08:00:04.048Z,96.11
2018-02-20T08:01:03.999Z,95.73
2018-02-20T08:02:03.946Z,95.26
2018-02-20T08:03:03.896Z,95.36
2018-02-20T08:04:03.848Z,95.07
2018-02-20T08:05:03.801Z,95.07
2018-02-20T08:06:03.745Z,94.60
2018-02-20T08:07:03.699Z,94.89
2018-02-20T08:08:03.653Z,94.32
2018-02-20T08:09:03.594Z,94.41
2018-02-20T08:10:03.559Z,94.13
2018-02-20T08:11:03.496Z,94.41
2018-02-20T08:12:03.452Z,93.94
2018-02-20T08:13:03.399Z,93.94
2018-02-20T08:14:03.344Z,94.18
2018-02-20T08:15:03.295Z,93.42
2018-02-20T08:16:03.241Z,93.42
2018-02-20T08:17:03.194Z,92.94
2018-02-20T08:18:03.144Z,92.85
2018-02-20T08:19:03.092Z,91.81
2018-02-20T08:20:03.053Z,91.72
2018-02-20T08:21:02.991Z,91.24
2018-02-20T08:22:02.945Z,90.44
2018-02-20T08:23:02.893Z,90.34
2018-02-20T08:24:02.844Z,89.69
2018-02-20T08:25:02.796Z,89.40
2018-02-20T08:26:02.742Z,88.45
2018-02-20T08:27:02.696Z,88.74
2018-02-20T08:28:02.653Z,87.98
2018-02-20T08:29:02.603Z,86.94
2018-02-20T08:30:02.546Z,86.79
2018-02-20T08:31:02.500Z,86.79
2018-02-20T08:32:02.450Z,86.41
2018-02-20T08:33:02.398Z,86.22
2018-02-20T08:34:02.353Z,85.00
2018-02-20T08:35:02.305Z,85.00
2018-02-20T08:36:02.258Z,84.42
2018-02-20T08:37:02.205Z,84.23
2018-02-20T08:38:02.158Z,83.62
2018-02-20T08:39:02.108Z,82.95
2018-02-20T08:40:02.067Z,82.57
2018-02-20T08:41:02.021Z,83.05
2018-02-20T08:42:01.967Z,82.29
2018-02-20T08:43:01.916Z,81.92
2018-02-20T08:44:01.869Z,80.87
2018-02-20T08:45:01.821Z,80.77
2018-02-20T08:46:01.778Z,80.96
2018-02-20T08:47:01.726Z,80.91
2018-02-20T08:48:01.678Z,80.72
2018-02-20T08:49:01.635Z,80.44
2018-02-20T08:50:01.583Z,79.30
2018-02-20T08:51:01.540Z,79.30
2018-02-20T08:52:01.489Z,79.21
2018-02-20T08:53:01.442Z,78.54
2018-02-20T08:54:01.397Z,78.73
2018-02-20T08:55:01.347Z,78.45
2018-02-20T08:56:01.306Z,78.02
2018-02-20T08:57:01.258Z,78.20
2018-02-20T08:58:01.213Z,77.54
2018-02-20T08:59:01.172Z,77.25
2018-02-20T09:00:01.122Z,76.97
2018-02-20T09:01:01.072Z,77.16
2018-02-20T09:02:01.022Z,76.97
2018-02-20T09:03:00.978Z,76.78
2018-02-20T09:04:00.930Z,76.78
2018-02-20T09:05:00.891Z,76.50
2018-02-20T09:06:00.837Z,76.97
2018-02-20T09:07:00.793Z,76.87
2018-02-20T09:08:00.750Z,76.50
2018-02-20T09:09:00.704Z,76.03
2018-02-20T09:10:00.653Z,76.03
2018-02-20T09:11:00.609Z,76.12
2018-02-20T09:12:00.565Z,75.74
2018-02-20T09:13:00.519Z,75.36
2018-02-20T09:14:00.473Z,76.03
2018-02-20T09:15:00.427Z,75.93
2018-02-20T09:16:00.386Z,76.50
2018-02-20T09:17:00.335Z,75.17
2018-02-20T09:18:00.292Z,75.55
2018-02-20T09:19:00.245Z,75.36
2018-02-20T09:20:00.205Z,76.12
2018-02-20T09:21:00.155Z,76.12
2018-02-20T09:22:00.113Z,76.59
2018-02-20T09:23:00.063Z,76.12
2018-02-20T09:24:00.024Z,75.55
2018-02-20T09:24:59.981Z,75.36
2018-02-20T09:25:59.928Z,75.93
2018-02-20T09:26:59.886Z,75.74
2018-02-20T09:27:59.838Z,76.12
2018-02-20T09:28:59.796Z,75.45
2018-02-20T09:29:59.751Z,75.64
2018-02-20T09:30:59.705Z,74.79
2018-02-20T09:31:59.660Z,74.88
2018-02-20T09:32:59.614Z,75.55
2018-02-20T09:33:59.567Z,75.55
2018-02-20T09:34:59.525Z,74.51
2018-02-20T09:35:59.481Z,74.41
2018-02-20T09:36:59.436Z,75.55
2018-02-20T09:37:59.401Z,74.88
2018-02-20T09:38:59.348Z,75.36
2018-02-20T09:39:59.307Z,75.17
2018-02-20T09:40:59.256Z,75.36
2018-02-20T09:41:59.216Z,74.69
2018-02-20T09:42:59.166Z,74.69
2018-02-20T09:43:59.122Z,74.79
2018-02-20T09:44:59.081Z,74.64
2018-02-20T09:45:59.042Z,74.03
2018-02-20T09:46:58.988Z,74.35
2018-02-20T09:47:58.949Z,74.69
2018-02-20T09:48:58.901Z,74.83
2018-02-20T09:49:58.858Z,76.03
2018-02-20T09:50:58.811Z,75.55
2018-02-20T09:51:58.768Z,75.55
2018-02-20T09:52:58.720Z,75.64
2018-02-20T09:53:58.681Z,75.36
2018-02-20T09:54:58.632Z,76.12
2018-02-20T09:55:58.585Z,75.87
2018-02-20T09:56:58.538Z,75.40
2018-02-20T09:57:58.496Z,74.92
2018-02-20T09:58:58.445Z,75.36
2018-02-20T09:59:58.404Z,74.92
2018-02-20T10:00:58.357Z,75.96
2018-02-20T10:01:58.313Z,76.63
2018-02-20T10:02:58.266Z,76.15
2018-02-20T10:03:58.218Z,75.96
2018-02-20T10:04:58.174Z,76.06
2018-02-20T10:05:58.131Z,74.92
2018-02-20T10:06:58.092Z,74.73
2018-02-20T10:07:58.077Z,75.40
2018-02-20T10:08:58.000Z,75.02
2018-02-20T10:09:57.950Z,74.26
2018-02-20T10:10:57.906Z,74.26
2018-02-20T10:11:57.856Z,74.16
2018-02-20T10:12:57.807Z,73.97
2018-02-20T10:13:57.762Z,73.41
2018-02-20T10:14:57.715Z,74.16
2018-02-20T10:15:57.672Z,74.16
2018-02-20T10:16:57.623Z,73.03
2018-02-20T10:17:57.582Z,72.36
2018-02-20T10:18:57.533Z,73.22
2018-02-20T10:19:57.488Z,73.50
2018-02-20T10:20:57.441Z,71.83
2018-02-20T10:21:57.396Z,71.83
2018-02-20T10:22:57.356Z,72.68
2018-02-20T10:23:57.309Z,73.35
2018-02-20T10:24:57.262Z,72.78
2018-02-20T10:25:57.209Z,72.78
2018-02-20T10:26:57.168Z,71.45
2018-02-20T10:27:57.120Z,71.55
2018-02-20T10:28:57.072Z,72.59
2018-02-20T10:29:57.028Z,72.02
2018-02-20T10:30:56.985Z,70.31
2018-02-20T10:31:56.935Z,70.69
2018-02-20T10:32:56.891Z,70.59
2018-02-20T10:33:56.849Z,69.84
2018-02-20T10:34:56.797Z,70.21
2018-02-20T10:35:56.751Z,70.69
2018-02-20T10:36:56.708Z,71.26
2018-02-20T10:37:56.662Z,70.06
2018-02-20T10:38:56.614Z,69.30
2018-02-20T10:39:56.569Z,68.73
2018-02-20T10:40:56.527Z,70.15
2018-02-20T10:41:56.478Z,69.21
2018-02-20T10:42:56.442Z,68.07
2018-02-20T10:43:56.386Z,68.35
2018-02-20T10:44:56.347Z,67.88
2018-02-20T10:45:56.296Z,66.93
2018-02-20T10:46:56.247Z,67.97
2018-02-20T10:47:56.204Z,67.59
2018-02-20T10:48:56.161Z,67.59
2018-02-20T10:49:56.115Z,67.50
2018-02-20T10:50:56.067Z,67.02
2018-02-20T10:51:56.022Z,67.12
2018-02-20T10:52:55.988Z,66.83
2018-02-20T10:53:55.927Z,67.31
2018-02-20T10:54:55.886Z,66.83
2018-02-20T10:55:55.841Z,65.88
2018-02-20T10:56:55.799Z,65.79
2018-02-20T10:57:55.745Z,66.17
2018-02-20T10:58:55.709Z,65.69
2018-02-20T10:59:55.662Z,66.64
2018-02-20T11:00:55.613Z,66.36
2018-02-20T11:01:55.567Z,65.73
2018-02-20T11:02:55.518Z,66.30
2018-02-20T11:03:55.470Z,66.55
2018-02-20T11:04:55.430Z,66.46
2018-02-20T11:05:55.380Z,66.36
2018-02-20T11:06:55.333Z,66.55
2018-02-20T11:07:55.287Z,66.01
2018-02-20T11:08:55.242Z,65.25
2018-02-20T11:09:55.199Z,66.01
2018-02-20T11:10:55.156Z,65.31
2018-02-20T11:11:55.107Z,65.41
2018-02-20T11:12:55.064Z,65.03
2018-02-20T11:13:55.014Z,64.94
2018-02-20T11:14:54.974Z,64.94
2018-02-20T11:15:54.921Z,64.56
2018-02-20T11:16:54.878Z,65.22
2018-02-20T11:17:54.829Z,65.60
2018-02-20T11:18:54.784Z,65.54
2018-02-20T11:19:54.739Z,65.31
2018-02-20T11:20:54.693Z,64.84
2018-02-20T11:21:54.646Z,65.12
2018-02-20T11:22:54.605Z,65.50
2018-02-20T11:23:54.554Z,65.63
2018-02-20T11:24:54.509Z,65.88
2018-02-20T11:25:54.464Z,65.50
2018-02-20T11:26:54.422Z,64.75
2018-02-20T11:27:54.371Z,64.78
2018-02-20T11:28:54.326Z,64.94
2018-02-20T11:29:54.278Z,64.78
2018-02-20T11:30:54.262Z,65.06
2018-02-20T11:31:54.188Z,65.73
2018-02-20T11:32:54.141Z,66.20
2018-02-20T11:33:54.100Z,64.87
2018-02-20T11:34:54.052Z,64.69
2018-02-20T11:35:54.005Z,65.16
2018-02-20T11:36:53.962Z,64.97
2018-02-20T11:37:53.916Z,63.92
2018-02-20T11:38:53.870Z,63.83
2018-02-20T11:39:53.821Z,63.64
2018-02-20T11:40:53.775Z,64.59
2018-02-20T11:41:53.729Z,64.02
2018-02-20T11:42:53.682Z,63.83
2018-02-20T11:43:53.637Z,63.92
2018-02-20T11:44:53.597Z,64.21
2018-02-20T11:45:53.548Z,63.07
2018-02-20T11:46:53.502Z,61.74
2018-02-20T11:47:53.454Z,62.15
2018-02-20T11:48:53.411Z,62.34
2018-02-20T11:49:53.366Z,62.43
2018-02-20T11:50:53.320Z,63.20
2018-02-20T11:51:53.270Z,62.62
2018-02-20T11:52:53.225Z,61.20
2018-02-20T11:53:53.179Z,61.10
2018-02-20T11:54:53.133Z,60.91
2018-02-20T11:55:53.106Z,61.01
2018-02-20T11:56:53.042Z,61.87
2018-02-20T11:57:53.003Z,61.20
2018-02-20T11:58:52.953Z,61.68
2018-02-20T11:59:52.908Z,60.75
2018-02-20T12:00:52.863Z,61.04
2018-02-20T12:01:52.814Z,61.04
2018-02-20T12:02:52.774Z,61.61
2018-02-20T12:03:52.726Z,60.09
2018-02-20T12:04:52.680Z,59.52
2018-02-20T12:05:52.634Z,59.23
2018-02-20T12:06:52.588Z,60.09
2018-02-20T12:07:52.543Z,59.23
2018-02-20T12:08:52.500Z,58.76
2018-02-20T12:09:52.453Z,58.88
2018-02-20T12:10:52.409Z,58.31
2018-02-20T12:11:52.366Z,59.45
2018-02-20T12:12:52.320Z,57.45
2018-02-20T12:13:52.277Z,56.60
2018-02-20T12:14:52.227Z,55.93
2018-02-20T12:15:52.186Z,56.41
2018-02-20T12:16:52.142Z,56.88
2018-02-20T12:17:52.097Z,55.20
2018-02-20T12:18:52.048Z,55.20
2018-02-20T12:19:52.003Z,55.20
2018-02-20T12:20:51.959Z,53.20
2018-02-20T12:21:51.917Z,52.92
2018-02-20T12:22:51.870Z,53.39
2018-02-20T12:23:51.825Z,53.67
2018-02-20T12:24:51.782Z,52.44
2018-02-20T12:25:51.735Z,53.11
2018-02-20T12:26:51.692Z,54.44
2018-02-20T12:27:51.649Z,54.72
2018-02-20T12:28:51.606Z,52.82
2018-02-20T12:29:51.558Z,52.47
2018-02-20T12:30:51.515Z,52.66
2018-02-20T12:31:51.472Z,51.61
2018-02-20T12:32:51.427Z,51.14
2018-02-20T12:33:51.384Z,50.94
2018-02-20T12:34:51.335Z,50.56
2018-02-20T12:35:51.322Z,51.23
2018-02-20T12:36:51.249Z,50.94
2018-02-20T12:37:51.204Z,51.32
2018-02-20T12:38:51.160Z,51.42
2018-02-20T12:39:51.115Z,50.75
2018-02-20T12:40:51.076Z,51.42
2018-02-20T12:41:51.028Z,50.94
2018-02-20T12:42:50.989Z,50.66
2018-02-20T12:43:50.939Z,51.35
2018-02-20T12:44:50.901Z,50.59
2018-02-20T12:45:50.854Z,49.61
2018-02-20T12:46:50.809Z,49.23
2018-02-20T12:47:50.766Z,48.02
2018-02-20T12:48:50.722Z,48.68
2018-02-20T12:49:50.678Z,48.39
2018-02-20T12:50:50.640Z,48.75
2018-02-20T12:51:50.590Z,49.80
2018-02-20T12:52:50.549Z,50.49